WetterOnline ( https://www.wetteronline.de )

Wetter aktuell Tuttlingen

Aktuelles Wetter: Klippeneck (975m)

6-stündlich | Neueste Meldungen
Ortszeit Temperatur Wetter
Di, 29.11. 1:00 3.3° C Nebel
Mo, 28.11. 19:00 4.2° C leichter Regen
Mo, 28.11. 13:00 6.1° C leichter Regen
Mo, 28.11. 7:00 4.5° C bedeckt
Mo, 28.11. 1:00 5.7° C bedeckt
So, 27.11. 19:00 1.8° C bedeckt
So, 27.11. 13:00 3.8° C bedeckt
So, 27.11. 7:00 1.3° C wolkenlos
Ortszeit Temperatur Wetter
Di, 29.11. 3:00 2.8° C Nebel
Di, 29.11. 2:50 2.8° C Nebel
Di, 29.11. 2:40 2.9° C Nebel
Di, 29.11. 2:30 3.0° C Nebel
Di, 29.11. 2:20 3.0° C Nebel
Di, 29.11. 2:10 3.0° C Nebel
Di, 29.11. 2:00 3.1° C Nebel
Di, 29.11. 1:30 3.3° C Nebel
Di, 29.11. 1:00 3.3° C Nebel
Di, 29.11. 0:30 3.3° C Nebel
Di, 29.11. 0:00 3.3° C Nebel
Ortszeit Relative Feuchte Sichtweite
Di, 29.11. 1:00 98% 100 m
Mo, 28.11. 19:00 86% 40 km
Mo, 28.11. 13:00 71% 40 km
Mo, 28.11. 7:00 54% 55 km
Mo, 28.11. 1:00 45% 65 km
So, 27.11. 19:00 76% 60 km
So, 27.11. 13:00 68% 55 km
So, 27.11. 7:00 68% 60 km
Ortszeit Relative Feuchte Sichtweite
Di, 29.11. 3:00 97% 100 m
Di, 29.11. 2:50 97% -
Di, 29.11. 2:40 98% -
Di, 29.11. 2:30 98% 100 m
Di, 29.11. 2:20 98% -
Di, 29.11. 2:10 97% -
Di, 29.11. 2:00 97% 0.2 km
Di, 29.11. 1:30 97% 0.2 km
Di, 29.11. 1:00 98% 100 m
Di, 29.11. 0:30 98% 100 m
Di, 29.11. 0:00 98% 100 m
Ortszeit Niederschlagsmenge Niederschlagsart
Di, 29.11. 1:00 0.5 l/m2 in 6 Std. Regen
Mo, 28.11. 19:00 0.1 l/m2 in 12 Std. Regen
Mo, 28.11. 13:00 0.1 l/m2 in 6 Std. Regen
Mo, 28.11. 7:00 0.0 l/m2 in 12 Std. -
Mo, 28.11. 1:00 0.0 l/m2 in 6 Std. -
So, 27.11. 19:00 0.0 l/m2 in 12 Std. -
So, 27.11. 13:00 0.0 l/m2 in 6 Std. -
So, 27.11. 7:00 0.0 l/m2 in 12 Std. -
Ortszeit Niederschlagsmenge Niederschlagsart
Di, 29.11. 3:00 <0.05 l/m2 in 1 Std. Sprühregen
Di, 29.11. 2:50 keine Meldung -
Di, 29.11. 2:40 keine Meldung -
Di, 29.11. 2:30 <0.05 l/m2 in 1 Std. -
Di, 29.11. 2:20 keine Meldung -
Di, 29.11. 2:10 keine Meldung -
Di, 29.11. 2:00 <0.05 l/m2 in 1 Std. Sprühregen
Di, 29.11. 1:30 0.0 l/m2 in 1 Std. -
Di, 29.11. 1:00 <0.05 l/m2 in 1 Std. Regen
Di, 29.11. 0:30 0.0 l/m2 in 1 Std. -
Di, 29.11. 0:00 <0.05 l/m2 in 1 Std. Regen
Ortszeit Stärke Spitze Richtung
km/h Bft. km/h Grad Sektor
Di, 29.11. 1:00 13 3 31 260° W
Mo, 28.11. 19:00 18 3 40 210° SW
Mo, 28.11. 13:00 7 2 29 160° S
Mo, 28.11. 7:00 9 2 22 230° SW
Mo, 28.11. 1:00 9 2 33 160° S
So, 27.11. 19:00 11 2 22 160° S
So, 27.11. 13:00 19 3 35 140° SO
So, 27.11. 7:00 28 4 44 120° SO
Ortszeit Stärke Spitze Richtung
km/h Bft. km/h Grad Sektor
Di, 29.11. 3:00 14 3 18 300° NW
Di, 29.11. 2:50 14 3 - 300° NW
Di, 29.11. 2:40 11 2 - 290° W
Di, 29.11. 2:30 11 2 18 270° W
Di, 29.11. 2:20 11 2 - 270° W
Di, 29.11. 2:10 11 2 - 270° W
Di, 29.11. 2:00 11 2 22 270° W
Di, 29.11. 1:30 11 2 22 260° W
Di, 29.11. 1:00 13 3 28 260° W
Di, 29.11. 0:30 11 2 18 260° W
Di, 29.11. 0:00 13 3 20 270° W
Ortszeit Untergrenze Bedeckung Gattung
total tief tief mittel hoch
Di, 29.11. 1:00 30 m 8/8 8/8 - - -
Mo, 28.11. 19:00 810 m 8/8 8/8 - - -
Mo, 28.11. 13:00 1170 m 8/8 8/8 - - -
Mo, 28.11. 7:00 3600 m 8/8 8/8 - - -
Mo, 28.11. 1:00 2700 m 8/8 8/8 - - -
So, 27.11. 19:00 3600 m 8/8 8/8 - - -
So, 27.11. 13:00 3900 m 8/8 8/8 - - -
So, 27.11. 7:00 - 0/8 0/8 - - -
Ortszeit Bedeckungsgrad in Achtel und Wolkenuntergrenze
Di, 29.11. 3:00 8(<30m)
Di, 29.11. 2:50 8(<30m)
Di, 29.11. 2:40 8
Di, 29.11. 2:30 8(<30m)
Di, 29.11. 2:20 8(<30m)
Di, 29.11. 2:10 7
Di, 29.11. 2:00 7(<30m)
Di, 29.11. 1:30 7(<30m)
Di, 29.11. 1:00 7(30m) 8(180m)
Di, 29.11. 0:30 8(<30m)
Di, 29.11. 0:00 8(<30m)
Ortszeit Stationsdruck (hPa) Tendenz (hPa in 3 Std.)
Di, 29.11. 1:00 902 + 0,4
Mo, 28.11. 19:00 901 0,0
Mo, 28.11. 13:00 901 - 0,3
Mo, 28.11. 7:00 902 - 0,5
Mo, 28.11. 1:00 903 - 1,4
So, 27.11. 19:00 906 - 1,7
So, 27.11. 13:00 910 - 2,1
So, 27.11. 7:00 912 - 0,9
Ortszeit Stationsdruck (hPa) Tendenz (hPa in 3 Std.)
Di, 29.11. 3:00 901 0,0
Di, 29.11. 2:50 901 keine Meldung
Di, 29.11. 2:40 902 keine Meldung
Di, 29.11. 2:30 902 + 0,1
Di, 29.11. 2:20 902 keine Meldung
Di, 29.11. 2:10 902 keine Meldung
Di, 29.11. 2:00 902 + 0,2
Di, 29.11. 1:30 902 + 0,3
Di, 29.11. 1:00 902 + 0,4
Di, 29.11. 0:30 902 + 0,4
Di, 29.11. 0:00 901 + 0,4
Ortszeit Schneehöhe (cm)
Di, 29.11. 1:00 0
Mo, 28.11. 19:00 0
Mo, 28.11. 13:00 0
Mo, 28.11. 7:00 0
Mo, 28.11. 1:00 0
So, 27.11. 19:00 0
So, 27.11. 13:00 0
So, 27.11. 7:00 0
Ortszeit Schneehöhe (cm)
Di, 29.11. 3:00 0
Di, 29.11. 2:50 0
Di, 29.11. 2:40 0
Di, 29.11. 2:30 0
Di, 29.11. 2:20 0
Di, 29.11. 2:10 0
Di, 29.11. 2:00 0
Di, 29.11. 1:30 0
Di, 29.11. 1:00 0
Di, 29.11. 0:30 0
Di, 29.11. 0:00 0
Link zu dieser Seite / Seite empfehlen

Das Wetter in ...